createdAt,value
2022-11-24T00:02:56.604Z,5.53
2022-11-24T00:06:12.013Z,5.13
2022-11-24T00:09:17.319Z,5.35
2022-11-24T00:12:20.134Z,4.63
2022-11-24T00:15:22.671Z,4.88
2022-11-24T00:18:24.692Z,5.55
2022-11-24T00:21:28.464Z,5.20
2022-11-24T00:24:32.428Z,4.50
2022-11-24T00:27:35.391Z,4.85
2022-11-24T00:30:39.269Z,4.85
2022-11-24T00:33:41.466Z,6.05
2022-11-24T00:36:44.223Z,5.18
2022-11-24T00:39:46.408Z,5.47
2022-11-24T00:42:48.632Z,5.38
2022-11-24T00:45:50.909Z,4.45
2022-11-24T00:48:54.095Z,4.47
2022-11-24T00:51:56.992Z,4.38
2022-11-24T00:54:59.365Z,4.95
2022-11-24T00:58:01.583Z,4.55
2022-11-24T01:01:25.819Z,4.78
2022-11-24T01:04:28.432Z,4.85
2022-11-24T01:07:31.202Z,4.32
2022-11-24T01:10:33.720Z,3.05
2022-11-24T01:13:35.907Z,3.63
2022-11-24T01:16:38.959Z,3.95
2022-11-24T01:19:41.399Z,3.85
2022-11-24T01:22:47.159Z,2.75
2022-11-24T01:25:49.748Z,2.95
2022-11-24T01:28:56.573Z,3.50
2022-11-24T01:31:58.636Z,3.03
2022-11-24T01:35:01.043Z,3.28
2022-11-24T01:38:03.531Z,2.70
2022-11-24T01:41:22.739Z,3.55
2022-11-24T01:44:31.774Z,2.70
2022-11-24T01:47:43.147Z,4.57
2022-11-24T01:50:49.818Z,3.38
2022-11-24T01:54:01.159Z,2.90
2022-11-24T01:57:13.389Z,3.50
2022-11-24T02:00:20.474Z,3.35
2022-11-24T02:03:30.856Z,4.00
2022-11-24T02:07:25.088Z,3.58
2022-11-24T02:10:30.007Z,2.85
2022-11-24T02:17:41.375Z,3.80
2022-11-24T02:20:45.878Z,3.08
2022-11-24T02:24:17.022Z,3.42
2022-11-24T02:27:23.240Z,3.60
2022-11-24T02:30:25.360Z,2.97
2022-11-24T02:33:27.848Z,2.72
2022-11-24T02:36:30.668Z,2.92
2022-11-24T02:39:32.838Z,3.50
2022-11-24T02:42:43.319Z,3.22
2022-11-24T02:45:48.401Z,2.70
2022-11-24T02:52:18.608Z,3.90
2022-11-24T03:08:56.198Z,2.90
2022-11-24T03:17:00.997Z,3.75
2022-11-24T03:20:28.411Z,3.75
2022-11-24T03:24:06.253Z,4.00
2022-11-24T04:26:47.890Z,4.35
2022-11-24T04:34:57.447Z,4.60
2022-11-24T04:38:03.120Z,5.63
2022-11-24T04:41:05.753Z,4.35
2022-11-24T04:44:07.814Z,4.47
2022-11-24T04:47:21.059Z,5.80
2022-11-24T04:50:24.799Z,4.97
2022-11-24T04:53:30.193Z,5.05
2022-11-24T04:57:31.030Z,5.20
2022-11-24T05:00:33.150Z,4.32
2022-11-24T05:03:36.685Z,3.70
2022-11-24T05:06:39.087Z,5.00
2022-11-24T05:10:00.865Z,4.00
2022-11-24T05:13:13.749Z,4.28
2022-11-24T05:16:15.994Z,4.90
2022-11-24T05:19:19.130Z,4.43
2022-11-24T05:22:21.056Z,5.97
2022-11-24T05:25:23.436Z,5.28
2022-11-24T05:28:25.729Z,5.80
2022-11-24T05:31:28.086Z,7.90
2022-11-24T05:34:36.593Z,5.60
2022-11-24T05:41:05.727Z,5.78
2022-11-24T05:44:07.977Z,8.30
2022-11-24T05:51:39.618Z,6.22
2022-11-24T05:54:50.438Z,6.28
2022-11-24T05:58:00.489Z,6.38
2022-11-24T06:01:06.370Z,6.68
2022-11-24T06:04:08.424Z,9.68
2022-11-24T06:07:12.743Z,7.20
2022-11-24T06:10:18.513Z,7.93
2022-11-24T06:13:22.611Z,8.02
2022-11-24T06:16:24.972Z,7.55
2022-11-24T06:19:27.050Z,7.47
2022-11-24T06:22:29.352Z,6.65
2022-11-24T06:25:31.385Z,7.07
2022-11-24T06:28:33.455Z,7.05
2022-11-24T06:31:35.799Z,7.75
2022-11-24T06:34:38.038Z,8.27
2022-11-24T06:37:41.975Z,7.32
2022-11-24T06:40:44.145Z,9.60
2022-11-24T06:43:53.896Z,6.38
2022-11-24T06:46:59.859Z,5.90
2022-11-24T06:50:02.281Z,5.53
2022-11-24T06:53:04.460Z,5.30
2022-11-24T06:56:15.344Z,4.95
2022-11-24T06:59:21.221Z,3.08
2022-11-24T07:02:24.675Z,3.95
2022-11-24T07:05:27.475Z,5.03
2022-11-24T07:08:29.615Z,5.82
2022-11-24T07:11:31.870Z,3.60
2022-11-24T07:14:34.098Z,5.00
2022-11-24T07:17:38.113Z,5.00
2022-11-24T07:20:40.444Z,5.07
2022-11-24T07:23:42.604Z,3.83
2022-11-24T07:26:45.018Z,6.30
2022-11-24T07:29:47.291Z,4.35
2022-11-24T07:32:49.376Z,4.72
2022-11-24T07:35:52.413Z,4.97
2022-11-24T07:38:54.431Z,4.53
2022-11-24T07:41:56.479Z,6.20
2022-11-24T07:44:58.463Z,6.25
2022-11-24T07:48:00.480Z,7.10
2022-11-24T07:51:04.696Z,6.65
2022-11-24T07:54:07.741Z,6.50
2022-11-24T07:57:09.965Z,5.50
2022-11-24T08:00:13.058Z,6.63
2022-11-24T08:03:15.917Z,6.15
2022-11-24T08:06:28.507Z,5.53
2022-11-24T08:09:31.058Z,7.47
2022-11-24T08:12:34.402Z,7.60
2022-11-24T08:15:37.675Z,6.07
2022-11-24T08:18:39.828Z,5.85
2022-11-24T08:21:41.933Z,6.25
2022-11-24T08:24:48.352Z,8.50
2022-11-24T08:27:50.395Z,6.45
2022-11-24T08:30:52.695Z,6.85
2022-11-24T08:33:56.277Z,7.38
2022-11-24T08:37:00.630Z,7.53
2022-11-24T08:40:02.661Z,7.03
2022-11-24T08:43:04.807Z,7.72
2022-11-24T08:46:10.450Z,7.95
2022-11-24T08:49:14.801Z,7.47
2022-11-24T08:52:17.584Z,6.70
2022-11-24T08:55:20.005Z,5.88
2022-11-24T08:58:22.315Z,6.70
2022-11-24T09:01:26.767Z,6.43
2022-11-24T09:04:29.076Z,7.10
2022-11-24T09:07:31.168Z,5.50
2022-11-24T09:10:33.476Z,6.68
2022-11-24T09:13:36.526Z,6.55
2022-11-24T09:16:38.736Z,7.25
2022-11-24T09:19:40.754Z,5.63
2022-11-24T09:22:43.582Z,5.47
2022-11-24T09:25:45.701Z,6.68
2022-11-24T09:28:48.513Z,6.15
2022-11-24T09:31:51.018Z,7.03
2022-11-24T09:34:52.960Z,6.00
2022-11-24T09:37:55.035Z,10.63
2022-11-24T09:41:26.089Z,5.95
2022-11-24T09:44:49.614Z,5.78
2022-11-24T09:47:59.581Z,5.05
2022-11-24T09:51:05.319Z,4.40
2022-11-24T09:54:21.852Z,3.55
2022-11-24T09:57:27.063Z,2.63
2022-11-24T10:00:30.386Z,3.08
2022-11-24T10:03:42.113Z,2.65
2022-11-24T10:07:19.305Z,2.85
2022-11-24T10:10:29.366Z,2.67
2022-11-24T10:13:31.268Z,2.15
2022-11-24T10:16:48.231Z,2.55
2022-11-24T10:19:58.160Z,3.33
2022-11-24T10:23:18.854Z,3.75
2022-11-24T10:26:37.082Z,3.20
2022-11-24T10:29:42.548Z,3.78
2022-11-24T10:32:48.342Z,3.03
2022-11-24T10:35:53.773Z,3.17
2022-11-24T10:39:28.965Z,3.85
2022-11-24T10:42:35.474Z,4.35
2022-11-24T10:45:40.231Z,3.58
2022-11-24T10:48:49.905Z,4.20
2022-11-24T10:52:15.317Z,3.58
2022-11-24T10:55:17.497Z,3.92
2022-11-24T10:58:25.063Z,3.47
2022-11-24T11:01:37.552Z,2.85
2022-11-24T11:04:39.687Z,3.20
2022-11-24T11:07:41.788Z,4.82
2022-11-24T11:10:45.527Z,4.88
2022-11-24T11:13:56.847Z,4.10
2022-11-24T11:17:03.011Z,3.03
2022-11-24T11:20:32.181Z,4.57
2022-11-24T11:23:36.118Z,4.32
2022-11-24T11:26:39.462Z,4.15
2022-11-24T11:36:27.397Z,4.78
2022-11-24T11:39:35.843Z,4.60
2022-11-24T11:43:05.989Z,5.45
2022-11-24T11:46:08.125Z,5.05
2022-11-24T11:49:13.759Z,5.05
2022-11-24T11:52:43.789Z,4.55
2022-11-24T11:56:14.462Z,5.60
2022-11-24T11:59:19.095Z,5.70
2022-11-24T12:02:56.443Z,6.35
2022-11-24T12:06:16.697Z,5.53
2022-11-24T12:09:27.833Z,6.18
2022-11-24T12:13:06.721Z,5.45
2022-11-24T12:16:30.192Z,5.78
2022-11-24T12:19:46.895Z,5.53
2022-11-24T12:23:18.155Z,5.60
2022-11-24T12:26:57.818Z,5.97
2022-11-24T12:30:13.557Z,5.82
2022-11-24T12:33:31.296Z,6.03
2022-11-24T12:36:49.915Z,3.58
2022-11-24T12:40:31.434Z,4.60
2022-11-24T12:43:39.805Z,4.97
2022-11-24T12:47:17.983Z,5.63
2022-11-24T12:50:24.610Z,3.38
2022-11-24T12:53:34.093Z,2.80
2022-11-24T12:57:00.169Z,4.22
2022-11-24T13:00:07.286Z,4.97
2022-11-24T13:03:30.358Z,3.50
2022-11-24T13:06:47.468Z,2.92
2022-11-24T13:10:54.683Z,3.33
2022-11-24T13:13:59.835Z,3.38
2022-11-24T13:17:36.330Z,3.95
2022-11-24T13:20:41.767Z,3.17
2022-11-24T13:23:44.664Z,3.92
2022-11-24T13:26:52.268Z,2.75
2022-11-24T13:29:55.485Z,4.32
2022-11-24T13:33:27.317Z,4.15
2022-11-24T13:36:34.644Z,4.50
2022-11-24T13:39:53.228Z,3.03
2022-11-24T13:42:58.479Z,3.72
2022-11-24T13:46:01.851Z,5.07
2022-11-24T13:49:14.491Z,6.07
2022-11-24T13:52:36.843Z,5.60
2022-11-24T13:55:41.158Z,6.10
2022-11-24T13:58:56.722Z,6.75
2022-11-24T14:01:59.187Z,6.70
2022-11-24T14:05:01.895Z,6.50
2022-11-24T14:08:07.275Z,6.57
2022-11-24T14:11:16.934Z,5.60
2022-11-24T14:14:21.245Z,5.60
2022-11-24T14:17:29.884Z,6.78
2022-11-24T14:20:33.258Z,7.60
2022-11-24T14:23:42.309Z,6.72
2022-11-24T14:26:47.132Z,6.95
2022-11-24T14:30:15.529Z,5.30
2022-11-24T14:33:20.331Z,8.07
2022-11-24T14:36:22.356Z,6.75
2022-11-24T14:39:26.731Z,6.13
2022-11-24T14:42:28.778Z,5.97
2022-11-24T14:45:37.771Z,5.30
2022-11-24T14:48:50.016Z,7.13
2022-11-24T14:52:04.194Z,4.85
2022-11-24T14:55:22.454Z,5.25
2022-11-24T14:58:37.695Z,5.40
2022-11-24T15:01:42.875Z,6.13
2022-11-24T15:05:03.590Z,5.72
2022-11-24T15:08:06.309Z,5.82
2022-11-24T15:11:08.611Z,5.93
2022-11-24T15:14:46.173Z,5.75
2022-11-24T15:17:52.508Z,6.00
2022-11-24T15:20:55.116Z,6.63
2022-11-24T15:24:17.826Z,7.32
2022-11-24T15:27:19.899Z,8.45
2022-11-24T15:30:21.895Z,7.57
2022-11-24T15:33:25.004Z,9.50
2022-11-24T15:36:27.868Z,8.32
2022-11-24T15:39:29.949Z,7.40
2022-11-24T15:42:32.000Z,5.78
2022-11-24T15:45:34.825Z,6.22
2022-11-24T15:48:38.784Z,6.10
2022-11-24T15:51:46.081Z,6.28
2022-11-24T15:54:54.194Z,7.57
2022-11-24T15:57:56.388Z,9.00
2022-11-24T16:00:58.679Z,6.40
2022-11-24T16:04:01.884Z,8.30
2022-11-24T16:07:07.004Z,7.05
2022-11-24T16:10:24.007Z,8.57
2022-11-24T16:13:26.142Z,7.13
2022-11-24T16:16:28.284Z,7.20
2022-11-24T16:19:37.343Z,8.43
2022-11-24T16:22:42.692Z,7.22
2022-11-24T16:25:44.737Z,7.38
2022-11-24T16:28:46.839Z,8.20
2022-11-24T16:31:52.731Z,8.90
2022-11-24T16:34:54.889Z,7.60
2022-11-24T16:37:57.325Z,8.20
2022-11-24T16:41:02.937Z,6.25
2022-11-24T16:44:05.121Z,7.82
2022-11-24T16:47:11.949Z,7.05
2022-11-24T16:50:14.323Z,7.45
2022-11-24T16:53:16.495Z,7.40
2022-11-24T16:56:18.611Z,6.57
2022-11-24T16:59:20.665Z,6.32
2022-11-24T17:02:23.000Z,6.88
2022-11-24T17:05:25.810Z,6.28
2022-11-24T17:08:34.035Z,6.60
2022-11-24T17:11:36.426Z,8.52
2022-11-24T17:14:38.577Z,6.82
2022-11-24T17:18:01.312Z,7.30
2022-11-24T17:21:09.683Z,8.18
2022-11-24T17:24:17.631Z,7.47
2022-11-24T17:27:19.979Z,7.53
2022-11-24T17:30:22.384Z,7.43
2022-11-24T17:33:24.619Z,8.73
2022-11-24T17:36:27.583Z,9.27
2022-11-24T17:39:29.943Z,6.50
2022-11-24T17:42:31.944Z,6.50
2022-11-24T17:45:34.139Z,7.18
2022-11-24T17:48:36.883Z,7.68
2022-11-24T17:51:39.009Z,5.20
2022-11-24T17:54:56.566Z,5.97
2022-11-24T17:57:59.410Z,4.68
2022-11-24T18:01:01.934Z,4.20
2022-11-24T18:04:04.406Z,4.55
2022-11-24T18:07:06.489Z,4.53
2022-11-24T18:10:08.957Z,5.70
2022-11-24T18:13:27.434Z,5.07
2022-11-24T18:16:35.405Z,5.50
2022-11-24T18:19:37.703Z,3.50
2022-11-24T18:23:04.429Z,4.80
2022-11-24T18:26:05.348Z,7.63
2022-11-24T18:29:08.139Z,7.20
2022-11-24T18:32:10.362Z,7.70
2022-11-24T18:35:12.520Z,8.10
2022-11-24T18:38:14.653Z,7.78
2022-11-24T18:41:18.154Z,7.40
2022-11-24T18:44:20.751Z,8.38
2022-11-24T18:47:25.683Z,6.38
2022-11-24T18:50:27.781Z,6.75
2022-11-24T18:53:29.942Z,5.40
2022-11-24T18:56:34.542Z,7.38
2022-11-24T18:59:37.297Z,7.53
2022-11-24T19:02:39.904Z,8.10
2022-11-24T19:05:43.371Z,8.40
2022-11-24T19:08:45.897Z,7.03
2022-11-24T19:11:48.059Z,7.25
2022-11-24T19:14:50.310Z,8.25
2022-11-24T19:17:52.327Z,9.95
2022-11-24T19:20:58.040Z,9.30
2022-11-24T19:24:04.975Z,8.82
2022-11-24T19:27:10.996Z,8.67
2022-11-24T19:30:13.284Z,9.13
2022-11-24T19:33:15.764Z,9.63
2022-11-24T19:36:20.573Z,8.38
2022-11-24T19:39:23.293Z,6.30
2022-11-24T19:42:27.102Z,7.50
2022-11-24T19:45:29.506Z,7.95
2022-11-24T19:53:03.555Z,5.82
2022-11-24T19:56:14.680Z,5.88
2022-11-24T19:59:20.713Z,9.10
2022-11-24T20:02:31.990Z,7.18
2022-11-24T20:05:34.342Z,5.00
2022-11-24T20:08:38.182Z,5.38
2022-11-24T20:11:41.210Z,6.00
2022-11-24T20:14:44.211Z,5.72
2022-11-24T20:17:46.770Z,5.75
2022-11-24T20:20:49.076Z,5.93
2022-11-24T20:23:55.486Z,5.25
2022-11-24T20:27:00.823Z,6.68
2022-11-24T20:30:03.425Z,5.75
2022-11-24T20:33:09.726Z,6.88
2022-11-24T20:36:14.184Z,6.50
2022-11-24T20:39:36.803Z,7.82
2022-11-24T20:42:41.412Z,5.93
2022-11-24T20:45:43.575Z,5.25
2022-11-24T20:48:46.693Z,6.15
2022-11-24T20:51:49.042Z,5.35
2022-11-24T20:54:51.154Z,5.68
2022-11-24T20:57:53.229Z,5.43
2022-11-24T21:00:55.582Z,5.65
2022-11-24T21:03:59.828Z,5.40
2022-11-24T21:07:02.111Z,5.88
2022-11-24T21:10:04.687Z,5.35
2022-11-24T21:13:07.115Z,5.15
2022-11-24T21:16:19.953Z,5.35
2022-11-24T21:19:24.179Z,3.90
2022-11-24T21:22:27.267Z,6.05
2022-11-24T21:25:30.868Z,4.28
2022-11-24T21:28:33.878Z,4.55
2022-11-24T21:31:39.735Z,5.25
2022-11-24T21:34:42.276Z,5.53
2022-11-24T21:37:44.571Z,4.97
2022-11-24T21:40:50.297Z,5.65
2022-11-24T21:43:55.611Z,5.72
2022-11-24T21:47:01.479Z,5.38
2022-11-24T21:50:09.187Z,5.15
2022-11-24T21:53:11.810Z,3.83
2022-11-24T21:56:18.175Z,5.43
2022-11-24T21:59:22.609Z,5.05
2022-11-24T22:02:26.454Z,5.35
2022-11-24T22:05:44.112Z,6.75
2022-11-24T22:11:54.138Z,7.43
2022-11-24T22:14:56.568Z,5.75
2022-11-24T22:17:58.679Z,7.60
2022-11-24T22:21:03.026Z,7.53
2022-11-24T22:24:05.385Z,7.60
2022-11-24T22:27:07.572Z,7.75
2022-11-24T22:30:10.781Z,7.15
2022-11-24T22:33:14.034Z,8.20
2022-11-24T22:36:18.804Z,7.47
2022-11-24T22:39:20.803Z,7.97
2022-11-24T22:42:23.002Z,7.63
2022-11-24T22:45:25.094Z,8.35
2022-11-24T22:48:29.114Z,8.45
2022-11-24T22:51:34.203Z,9.00
2022-11-24T22:54:36.701Z,8.90
2022-11-24T22:57:39.063Z,7.78
2022-11-24T23:00:54.287Z,9.43
2022-11-24T23:04:00.996Z,8.65
2022-11-24T23:07:03.821Z,8.85
2022-11-24T23:10:06.869Z,9.05
2022-11-24T23:13:10.848Z,9.27
2022-11-24T23:16:15.691Z,9.82
2022-11-24T23:19:18.832Z,10.85
2022-11-24T23:22:21.220Z,9.93
2022-11-24T23:25:24.319Z,9.45
2022-11-24T23:28:34.712Z,9.45
2022-11-24T23:31:40.073Z,8.80
2022-11-24T23:34:43.035Z,8.38
2022-11-24T23:38:06.976Z,9.88
2022-11-24T23:41:12.819Z,10.00
2022-11-24T23:44:15.619Z,8.45
2022-11-24T23:47:18.974Z,9.55
2022-11-24T23:50:23.319Z,8.75
2022-11-24T23:53:28.805Z,9.27
2022-11-24T23:56:33.358Z,9.07
2022-11-24T23:59:35.732Z,8.82
